Time;durP1;ratioP1;P1;durP2;ratioP2;P2;SDS_P1;SDS_P2;PMS_P1;PMS_P2;Temp;Humidity;BMP_temperature;BMP_pressure;BME280_temperature;BME280_humidity;BME280_pressure;Samples;Min_cycle;Max_cycle;Signal;HPM_P1;HPM_P2
2023/01/04 00:01:26;;;;;;;160.90;103.80;;;;;;;1.93;100.00;100263.98;105958;1292;59655;-72
2023/01/04 00:03:52;;;;;;;152.30;100.10;;;;;;;1.91;100.00;100261.38;105986;1282;59782;-72
2023/01/04 00:06:19;;;;;;;166.70;109.40;;;;;;;1.89;100.00;100260.88;105978;1284;59688;-72
2023/01/04 00:08:45;;;;;;;169.70;110.80;;;;;;;1.87;100.00;100265.11;105955;1291;60141;-71
2023/01/04 00:11:19;;;;;;;184.60;115.80;;;;;;;1.88;100.00;100265.44;105973;1291;59792;-71
2023/01/04 00:13:49;;;;;;;181.00;113.70;;;;;;;1.91;100.00;100265.41;105976;1292;59639;-72
2023/01/04 00:16:18;;;;;;;172.30;116.00;;;;;;;1.90;100.00;100267.52;105966;1284;67808;-72
2023/01/04 00:18:45;;;;;;;177.00;113.10;;;;;;;1.87;100.00;100267.02;105987;1287;68317;-71
2023/01/04 00:21:20;;;;;;;165.50;112.80;;;;;;;1.83;100.00;100265.84;105964;1291;64934;-71
2023/01/04 00:23:51;;;;;;;162.00;106.80;;;;;;;1.79;100.00;100267.46;105953;1290;59773;-72
2023/01/04 00:26:22;;;;;;;166.30;109.30;;;;;;;1.72;100.00;100265.27;105972;1291;60034;-72
2023/01/04 00:28:54;;;;;;;161.60;105.50;;;;;;;1.65;100.00;100264.45;105956;1292;67647;-71
2023/01/04 00:31:21;;;;;;;166.30;104.20;;;;;;;1.58;100.00;100270.83;105960;1287;60964;-71
2023/01/04 00:33:48;;;;;;;173.90;115.10;;;;;;;1.49;100.00;100273.89;105958;1287;64804;-71
2023/01/04 00:36:15;;;;;;;177.00;109.20;;;;;;;1.45;100.00;100266.94;105416;1298;59746;-72
2023/01/04 00:38:41;;;;;;;165.70;107.40;;;;;;;1.44;100.00;100260.81;105947;1282;59768;-72
2023/01/04 00:41:08;;;;;;;166.30;105.00;;;;;;;1.39;100.00;100258.40;105765;1280;59700;-72
2023/01/04 00:43:35;;;;;;;165.40;107.50;;;;;;;1.32;100.00;100258.64;105968;1290;60026;-72
2023/01/04 00:46:02;;;;;;;165.80;107.90;;;;;;;1.27;100.00;100260.79;105931;1292;63826;-71
2023/01/04 00:48:28;;;;;;;165.70;109.00;;;;;;;1.24;100.00;100260.46;105823;1291;59822;-71
2023/01/04 00:50:55;;;;;;;161.00;105.40;;;;;;;1.21;100.00;100259.79;105989;1291;59743;-71
2023/01/04 00:53:21;;;;;;;159.20;103.60;;;;;;;1.14;100.00;100261.77;105950;1291;68186;-72
2023/01/04 00:55:47;;;;;;;151.10;106.90;;;;;;;1.08;100.00;100262.00;105971;1277;59767;-71
2023/01/04 00:58:14;;;;;;;159.60;102.10;;;;;;;1.02;100.00;100256.97;105954;1292;60090;-71
2023/01/04 01:00:40;;;;;;;157.00;99.80;;;;;;;0.98;100.00;100259.09;105979;1281;59683;-72
2023/01/04 01:03:06;;;;;;;144.50;101.00;;;;;;;0.89;100.00;100253.92;105837;1290;59750;-71
2023/01/04 01:05:34;;;;;;;149.10;102.30;;;;;;;0.82;100.00;100261.31;105981;1287;59785;-70
2023/01/04 01:08:23;;;;;;;155.70;100.80;;;;;;;0.77;100.00;100261.88;105703;1294;59742;-71
2023/01/04 01:10:47;;;;;;;152.40;100.80;;;;;;;0.74;100.00;100260.67;105965;1292;63759;-71
2023/01/04 01:13:13;;;;;;;153.70;102.60;;;;;;;0.70;100.00;100257.55;105962;1287;59758;-73
2023/01/04 01:15:39;;;;;;;157.30;101.70;;;;;;;0.64;100.00;100261.79;105976;1290;59609;-72
2023/01/04 01:18:06;;;;;;;157.20;104.20;;;;;;;0.59;100.00;100263.56;105691;1291;60091;-71
2023/01/04 01:20:32;;;;;;;161.30;107.90;;;;;;;0.56;100.00;100263.23;105921;1291;60113;-72
2023/01/04 01:22:58;;;;;;;169.30;109.20;;;;;;;0.58;100.00;100264.80;105957;1284;59705;-72
2023/01/04 01:25:25;;;;;;;171.90;109.80;;;;;;;0.60;100.00;100270.36;105963;1289;60137;-71
2023/01/04 01:27:51;;;;;;;154.30;102.40;;;;;;;0.61;100.00;100272.30;105943;1292;59814;-72
2023/01/04 01:30:17;;;;;;;154.70;101.90;;;;;;;0.58;100.00;100274.92;105954;1287;59796;-72
2023/01/04 01:32:44;;;;;;;184.30;106.80;;;;;;;0.53;100.00;100274.79;105946;1295;59898;-71
2023/01/04 01:35:10;;;;;;;296.30;109.80;;;;;;;0.49;100.00;100272.90;105969;1292;60157;-71
2023/01/04 01:37:36;;;;;;;181.10;100.30;;;;;;;0.48;100.00;100268.36;105946;1284;59679;-72
2023/01/04 01:40:02;;;;;;;167.90;105.20;;;;;;;0.50;100.00;100266.25;105991;1295;59724;-72
2023/01/04 01:42:28;;;;;;;153.80;100.80;;;;;;;0.48;100.00;100266.25;105696;1291;59868;-72
2023/01/04 01:45:09;;;;;;;159.20;100.50;;;;;;;0.42;100.00;100274.86;105964;1289;59789;-72
2023/01/04 01:47:41;;;;;;;165.80;104.50;;;;;;;0.36;100.00;100274.00;105943;1292;63933;-72
2023/01/04 01:50:19;;;;;;;163.80;104.20;;;;;;;0.30;100.00;100275.43;105685;1295;60759;-72
2023/01/04 01:52:46;;;;;;;163.10;106.20;;;;;;;0.31;100.00;100269.48;105221;1294;1002645;-72
2023/01/04 01:55:15;;;;;;;182.10;109.60;;;;;;;0.34;100.00;100275.95;105964;1292;67942;-72
2023/01/04 01:57:45;;;;;;;178.20;143.70;;;;;;;0.37;100.00;100280.30;105966;1291;60535;-72
2023/01/04 02:00:13;;;;;;;209.00;116.10;;;;;;;0.39;100.00;100276.27;105931;1291;64844;-72
2023/01/04 02:03:05;;;;;;;218.50;118.20;;;;;;;0.43;100.00;100278.35;105811;1292;59774;-71
2023/01/04 02:05:33;;;;;;;381.20;153.70;;;;;;;0.45;100.00;100279.73;105964;1295;59643;-71
2023/01/04 02:08:02;;;;;;;286.60;132.60;;;;;;;0.48;100.00;100273.60;105669;1288;67042;-72
2023/01/04 02:10:29;;;;;;;244.60;125.80;;;;;;;0.48;100.00;100272.20;105972;1292;60906;-71
2023/01/04 02:12:56;;;;;;;253.90;122.30;;;;;;;0.45;100.00;100270.80;105955;1288;63987;-72
2023/01/04 02:15:28;;;;;;;313.70;124.30;;;;;;;0.39;100.00;100267.70;105967;1292;59712;-71
2023/01/04 02:18:06;;;;;;;265.50;119.60;;;;;;;0.29;100.00;100267.73;105968;1287;59643;-72
2023/01/04 02:20:43;;;;;;;266.60;119.50;;;;;;;0.19;100.00;100268.65;105968;1297;65425;-72
2023/01/04 02:23:49;;;;;;;297.20;120.60;;;;;;;0.09;100.00;100269.59;105944;1294;69288;-72
2023/01/04 02:26:51;;;;;;;320.00;123.50;;;;;;;-0.02;100.00;100268.58;105925;1290;64822;-71
2023/01/04 02:29:52;;;;;;;367.40;130.80;;;;;;;-0.11;100.00;100266.51;105924;1287;59833;-71
2023/01/04 02:32:49;;;;;;;438.00;136.90;;;;;;;-0.20;100.00;100266.01;105961;1287;59552;-72
2023/01/04 02:35:25;;;;;;;370.20;130.00;;;;;;;-0.25;100.00;100262.34;105421;1304;66626;-71
2023/01/04 02:38:15;;;;;;;364.10;137.10;;;;;;;-0.27;100.00;100257.47;105428;1299;59869;-71
2023/01/04 02:40:49;;;;;;;315.40;126.60;;;;;;;-0.34;100.00;100250.84;105443;1297;64202;-72
2023/01/04 02:46:21;;;;;;;349.50;121.60;;;;;;;-0.50;100.00;100242.15;105438;1298;59748;-71
2023/01/04 02:51:35;;;;;;;307.90;121.90;;;;;;;-0.54;100.00;100241.11;105445;1287;60860;-72
2023/01/04 02:54:08;;;;;;;298.90;123.90;;;;;;;-0.57;100.00;100242.86;105430;1299;64001;-72
2023/01/04 02:56:55;;;;;;;300.10;124.20;;;;;;;-0.62;100.00;100240.60;105430;1301;59919;-72
2023/01/04 02:59:49;;;;;;;360.80;121.90;;;;;;;-0.65;100.00;100235.02;105416;1296;59785;-72
2023/01/04 03:06:15;;;;;;;233.30;108.00;;;;;;;-0.67;100.00;100228.39;105441;1303;61206;-72
2023/01/04 03:08:46;;;;;;;227.80;116.00;;;;;;;-0.73;100.00;100223.52;105291;1289;63780;-71
2023/01/04 03:14:06;;;;;;;258.30;103.50;;;;;;;-0.81;100.00;100222.66;105291;1298;59633;-72
2023/01/04 03:16:35;;;;;;;240.40;106.20;;;;;;;-0.85;100.00;100221.95;103806;1303;1002580;-71
2023/01/04 03:19:08;;;;;;;249.90;100.40;;;;;;;-0.89;100.00;100221.44;105279;1306;59900;-71
2023/01/04 03:21:37;;;;;;;236.80;102.40;;;;;;;-0.94;100.00;100224.75;105249;1298;65377;-71
2023/01/04 03:35:59;;;;;;;217.70;90.20;;;;;;;-1.13;100.00;100208.72;105254;1298;64865;-71
2023/01/04 03:50:37;;;;;;;150.80;88.60;;;;;;;-1.38;100.00;100212.88;105740;1297;64837;-72
2023/01/04 03:53:06;;;;;;;150.50;86.70;;;;;;;-1.45;100.00;100209.04;105932;1295;59849;-71
2023/01/04 03:55:34;;;;;;;140.90;81.60;;;;;;;-1.48;100.00;100203.63;105827;1291;60763;-71
2023/01/04 03:58:01;;;;;;;147.10;85.00;;;;;;;-1.51;100.00;100202.77;105832;1292;66674;-71
2023/01/04 04:00:28;;;;;;;174.90;84.60;;;;;;;-1.53;100.00;100199.80;105946;1281;59670;-71
2023/01/04 04:03:06;;;;;;;187.40;82.50;;;;;;;-1.56;100.00;100194.74;105950;1286;59810;-72
2023/01/04 04:08:28;;;;;;;162.20;79.20;;;;;;;-1.57;100.00;100184.44;105981;1282;59655;-72
2023/01/04 04:13:49;;;;;;;138.50;81.30;;;;;;;-1.62;100.00;100180.44;105966;1292;61369;-72
2023/01/04 04:16:16;;;;;;;141.40;81.40;;;;;;;-1.64;100.00;100175.21;105954;1295;64856;-72
2023/01/04 04:18:42;;;;;;;136.40;79.70;;;;;;;-1.66;100.00;100167.20;105973;1299;59732;-72
2023/01/04 04:21:08;;;;;;;136.20;81.80;;;;;;;-1.68;100.00;100164.58;105965;1287;59781;-72
2023/01/04 04:23:34;;;;;;;132.90;81.90;;;;;;;-1.72;100.00;100166.13;105979;1293;59777;-71
2023/01/04 04:26:00;;;;;;;135.60;82.10;;;;;;;-1.73;100.00;100165.79;105960;1293;59807;-71
2023/01/04 04:28:26;;;;;;;137.40;88.60;;;;;;;-1.74;100.00;100170.31;105964;1295;59802;-72
2023/01/04 04:30:52;;;;;;;137.10;84.80;;;;;;;-1.74;100.00;100174.14;105930;1295;59717;-73
2023/01/04 04:33:19;;;;;;;135.80;85.20;;;;;;;-1.75;100.00;100172.05;105978;1292;59952;-71
2023/01/04 04:35:49;;;;;;;141.40;88.80;;;;;;;-1.76;100.00;100174.14;105978;1291;59670;-70
2023/01/04 04:38:15;;;;;;;135.30;85.10;;;;;;;-1.77;100.00;100169.25;105976;1292;60768;-72
2023/01/04 04:43:26;;;;;;;138.70;88.00;;;;;;;-1.79;100.00;100165.59;105963;1295;59855;-72
2023/01/04 04:45:52;;;;;;;140.00;88.70;;;;;;;-1.80;100.00;100167.68;105957;1288;59866;-72
2023/01/04 04:48:18;;;;;;;151.60;95.70;;;;;;;-1.80;100.00;100161.23;105687;1293;59885;-72
2023/01/04 04:50:44;;;;;;;163.70;100.10;;;;;;;-1.78;100.00;100153.05;105981;1282;60096;-72
2023/01/04 04:53:10;;;;;;;171.50;101.40;;;;;;;-1.74;100.00;100146.96;105965;1284;59781;-72
2023/01/04 04:55:36;;;;;;;167.10;99.40;;;;;;;-1.72;100.00;100134.24;105217;1298;1002593;-72
2023/01/04 04:58:02;;;;;;;156.20;95.90;;;;;;;-1.69;100.00;100127.29;105958;1291;60183;-71
2023/01/04 05:00:28;;;;;;;162.60;98.60;;;;;;;-1.68;100.00;100125.90;105930;1292;59997;-72
2023/01/04 05:03:00;;;;;;;163.60;98.30;;;;;;;-1.69;100.00;100127.98;105948;1290;59689;-72
2023/01/04 05:05:27;;;;;;;152.80;92.80;;;;;;;-1.70;100.00;100126.59;105982;1295;62801;-71
2023/01/04 05:07:53;;;;;;;155.60;95.90;;;;;;;-1.72;100.00;100123.45;105965;1291;59828;-72
2023/01/04 05:10:19;;;;;;;150.70;90.80;;;;;;;-1.76;100.00;100120.14;105955;1290;59665;-72
2023/01/04 05:13:00;;;;;;;147.00;90.90;;;;;;;-1.78;100.00;100120.48;105995;1292;59772;-71
2023/01/04 05:15:30;;;;;;;154.10;94.50;;;;;;;-1.81;100.00;100119.44;105970;1291;60072;-72
2023/01/04 05:17:57;;;;;;;142.40;88.50;;;;;;;-1.83;100.00;100118.56;105990;1287;65045;-71
2023/01/04 05:20:23;;;;;;;141.40;88.50;;;;;;;-1.84;100.00;100113.15;105946;1295;59794;-72
2023/01/04 05:22:49;;;;;;;140.50;87.90;;;;;;;-1.83;100.00;100105.67;105944;1283;59618;-72
2023/01/04 05:25:16;;;;;;;146.70;92.90;;;;;;;-1.82;100.00;100099.59;105962;1291;60193;-72
2023/01/04 05:27:43;;;;;;;134.70;87.10;;;;;;;-1.83;100.00;100095.05;105973;1296;61137;-70
2023/01/04 05:32:56;;;;;;;135.90;84.00;;;;;;;-1.87;100.00;100103.74;105955;1292;59797;-72
2023/01/04 05:35:22;;;;;;;146.50;91.20;;;;;;;-1.88;100.00;100105.32;105996;1290;59572;-72
2023/01/04 05:37:47;;;;;;;145.10;92.20;;;;;;;-1.88;100.00;100102.71;105962;1292;60230;-72
2023/01/04 05:40:14;;;;;;;138.10;90.90;;;;;;;-1.89;100.00;100099.05;105963;1289;59997;-71
2023/01/04 05:42:40;;;;;;;138.50;91.30;;;;;;;-1.88;100.00;100098.17;105827;1285;174393;-73
2023/01/04 05:45:07;;;;;;;143.10;92.60;;;;;;;-1.87;100.00;100095.73;105978;1291;59817;-72
2023/01/04 05:47:34;;;;;;;147.20;96.00;;;;;;;-1.87;100.00;100096.61;105583;1295;59800;-71
2023/01/04 05:50:00;;;;;;;144.80;89.60;;;;;;;-1.88;100.00;100094.35;105565;1288;60006;-72
2023/01/04 05:52:26;;;;;;;140.50;91.30;;;;;;;-1.89;100.00;100093.13;105569;1295;60088;-73
2023/01/04 05:54:53;;;;;;;137.30;89.60;;;;;;;-1.90;100.00;100095.21;105581;1294;59999;-72
2023/01/04 05:57:19;;;;;;;147.10;92.20;;;;;;;-1.92;100.00;100099.05;105442;1289;59818;-71
2023/01/04 05:59:45;;;;;;;142.40;90.60;;;;;;;-1.92;100.00;100096.95;105413;1294;60143;-71
2023/01/04 06:02:23;;;;;;;140.50;89.20;;;;;;;-1.93;100.00;100098.00;105566;1294;59831;-72
2023/01/04 06:04:49;;;;;;;141.10;86.20;;;;;;;-1.96;100.00;100096.95;105572;1296;59845;-72
2023/01/04 06:07:16;;;;;;;131.90;87.50;;;;;;;-1.98;100.00;100100.42;105548;1302;59843;-72
2023/01/04 06:09:43;;;;;;;136.70;89.10;;;;;;;-2.02;100.00;100097.98;105548;1294;59994;-71
2023/01/04 06:12:09;;;;;;;141.00;91.10;;;;;;;-2.05;100.00;100098.15;105553;1293;59973;-72
2023/01/04 06:14:35;;;;;;;147.90;95.80;;;;;;;-2.08;100.00;100096.58;105586;1298;59857;-72
2023/01/04 06:17:02;;;;;;;141.00;93.70;;;;;;;-2.10;100.00;100092.05;105569;1293;59815;-72
2023/01/04 06:19:29;;;;;;;133.80;89.70;;;;;;;-2.12;100.00;100092.55;105566;1300;65042;-71
2023/01/04 06:21:55;;;;;;;150.50;98.10;;;;;;;-2.13;100.00;100090.13;105558;1294;60109;-72
2023/01/04 06:24:22;;;;;;;143.20;94.90;;;;;;;-2.14;100.00;100083.16;105566;1293;59810;-72
2023/01/04 06:26:48;;;;;;;136.50;90.30;;;;;;;-2.15;100.00;100078.80;105907;1291;60028;-72
2023/01/04 06:29:14;;;;;;;139.50;91.70;;;;;;;-2.16;100.00;100082.62;105986;1284;59781;-72
2023/01/04 06:31:40;;;;;;;131.30;89.90;;;;;;;-2.16;100.00;100082.09;105959;1291;59861;-73
2023/01/04 06:34:09;;;;;;;135.20;89.70;;;;;;;-2.18;100.00;100085.07;105947;1292;59909;-71
2023/01/04 06:36:35;;;;;;;136.60;89.30;;;;;;;-2.21;100.00;100084.02;105974;1291;60561;-71
2023/01/04 06:39:01;;;;;;;141.40;92.60;;;;;;;-2.23;100.00;100085.23;105977;1284;59631;-71
2023/01/04 06:41:27;;;;;;;146.50;100.70;;;;;;;-2.25;100.00;100080.36;105981;1285;59778;-73
2023/01/04 06:43:53;;;;;;;147.80;101.10;;;;;;;-2.25;100.00;100076.01;105942;1284;59696;-72
2023/01/04 06:46:19;;;;;;;153.40;99.50;;;;;;;-2.25;100.00;100075.13;105970;1290;59976;-72
2023/01/04 06:48:46;;;;;;;151.60;101.00;;;;;;;-2.27;100.00;100078.44;105991;1276;59749;-72
2023/01/04 06:51:12;;;;;;;153.80;104.80;;;;;;;-2.29;100.00;100082.09;105974;1278;60109;-71
2023/01/04 06:53:38;;;;;;;156.80;103.40;;;;;;;-2.29;100.00;100082.77;105971;1291;59865;-71
2023/01/04 06:56:06;;;;;;;159.70;104.80;;;;;;;-2.29;100.00;100081.56;105975;1289;59825;-71
2023/01/04 06:58:33;;;;;;;166.20;104.40;;;;;;;-2.27;100.00;100083.30;105956;1284;59698;-71
2023/01/04 07:00:59;;;;;;;154.40;101.90;;;;;;;-2.25;100.00;100083.15;104518;1290;1002347;-72
2023/01/04 07:03:25;;;;;;;149.70;98.60;;;;;;;-2.22;100.00;100082.98;105979;1291;59788;-71
2023/01/04 07:05:52;;;;;;;149.80;95.90;;;;;;;-2.21;100.00;100081.23;105971;1290;59872;-71
2023/01/04 07:08:18;;;;;;;148.90;97.00;;;;;;;-2.21;100.00;100078.10;105216;1287;1003082;-72
2023/01/04 07:10:46;;;;;;;144.20;97.30;;;;;;;-2.19;100.00;100077.58;105945;1287;60140;-71
2023/01/04 07:13:12;;;;;;;157.80;102.20;;;;;;;-2.15;100.00;100077.07;105973;1290;59919;-71
2023/01/04 07:15:38;;;;;;;156.80;101.00;;;;;;;-2.11;100.00;100072.89;105971;1287;59787;-71
2023/01/04 07:18:04;;;;;;;134.00;91.00;;;;;;;-2.08;100.00;100070.12;105970;1288;60033;-71
2023/01/04 07:20:30;;;;;;;138.50;90.70;;;;;;;-2.06;100.00;100067.15;105957;1282;59904;-71
2023/01/04 07:22:56;;;;;;;137.60;95.50;;;;;;;-2.07;100.00;100062.63;105965;1288;59854;-72
2023/01/04 07:25:22;;;;;;;140.60;90.50;;;;;;;-2.06;100.00;100055.14;105985;1291;59736;-71
2023/01/04 07:27:52;;;;;;;137.20;90.40;;;;;;;-2.06;100.00;100052.00;105970;1288;59980;-73
2023/01/04 07:30:20;;;;;;;136.80;90.00;;;;;;;-2.05;100.00;100053.39;105962;1289;59697;-72
2023/01/04 07:32:48;;;;;;;130.80;91.90;;;;;;;-2.02;100.00;100053.40;105939;1292;65070;-71
2023/01/04 07:35:14;;;;;;;136.10;94.30;;;;;;;-1.96;100.00;100053.06;105948;1283;59712;-72
2023/01/04 07:37:42;;;;;;;134.80;93.30;;;;;;;-1.89;100.00;100054.80;105962;1277;59624;-72
2023/01/04 07:40:10;;;;;;;140.70;94.20;;;;;;;-1.85;100.00;100054.46;105802;1284;67912;-72
2023/01/04 07:42:36;;;;;;;142.30;95.90;;;;;;;-1.80;100.00;100056.73;105918;1284;59901;-72
2023/01/04 07:45:04;;;;;;;136.90;93.30;;;;;;;-1.75;100.00;100053.77;105964;1291;63568;-72
2023/01/04 07:47:31;;;;;;;135.30;94.10;;;;;;;-1.70;100.00;100053.08;105960;1290;59747;-71
2023/01/04 07:49:58;;;;;;;134.70;94.00;;;;;;;-1.64;100.00;100051.15;105957;1292;61021;-71
2023/01/04 07:52:25;;;;;;;136.50;96.10;;;;;;;-1.59;100.00;100046.10;105990;1290;66873;-72
2023/01/04 07:54:52;;;;;;;142.70;99.30;;;;;;;-1.52;100.00;100048.17;105964;1290;59889;-72
2023/01/04 07:57:19;;;;;;;146.60;100.90;;;;;;;-1.45;100.00;100046.42;105537;1290;64979;-71
2023/01/04 07:59:45;;;;;;;148.50;100.90;;;;;;;-1.39;100.00;100042.76;105566;1293;59812;-71
2023/01/04 08:02:12;;;;;;;148.20;100.50;;;;;;;-1.32;100.00;100035.77;105586;1287;60222;-71
2023/01/04 08:04:39;;;;;;;141.20;98.30;;;;;;;-1.24;100.00;100038.89;105582;1294;60133;-72
2023/01/04 08:07:05;;;;;;;143.30;99.10;;;;;;;-1.18;100.00;100041.49;105551;1295;60309;-71
2023/01/04 08:09:31;;;;;;;140.90;100.30;;;;;;;-1.12;100.00;100042.00;105557;1294;59710;-71
2023/01/04 08:11:57;;;;;;;143.50;98.30;;;;;;;-1.05;100.00;100035.35;105543;1294;60068;-71
2023/01/04 08:14:23;;;;;;;146.80;102.00;;;;;;;-0.98;100.00;100036.90;105578;1294;60158;-71
2023/01/04 08:16:50;;;;;;;144.40;98.90;;;;;;;-0.89;100.00;100032.34;105574;1294;59742;-71
2023/01/04 08:19:19;;;;;;;138.10;98.90;;;;;;;-0.81;100.00;100028.46;105583;1294;59750;-71
2023/01/04 08:21:45;;;;;;;153.30;104.10;;;;;;;-0.73;100.00;100016.91;105551;1287;65301;-72
2023/01/04 08:24:15;;;;;;;154.20;106.70;;;;;;;-0.65;100.00;100012.67;105563;1294;59796;-74
2023/01/04 08:26:42;;;;;;;155.10;107.50;;;;;;;-0.56;100.00;100009.50;105563;1287;59672;-72
2023/01/04 08:29:10;;;;;;;147.30;104.70;;;;;;;-0.48;100.00;100009.79;105806;1292;66860;-71
2023/01/04 08:31:36;;;;;;;159.30;106.40;;;;;;;-0.39;100.00;100010.96;105976;1292;60112;-72
2023/01/04 08:34:05;;;;;;;149.30;105.80;;;;;;;-0.31;100.00;100008.47;105968;1285;59921;-71
2023/01/04 08:36:34;;;;;;;152.20;109.60;;;;;;;-0.22;100.00;100005.62;105956;1280;59741;-73
2023/01/04 08:39:04;;;;;;;151.60;108.50;;;;;;;-0.13;100.00;100005.55;105836;1284;59736;-71
2023/01/04 08:41:33;;;;;;;154.00;109.80;;;;;;;-0.03;100.00;100004.25;105973;1287;75125;-71
2023/01/04 08:44:00;;;;;;;153.50;114.20;;;;;;;0.05;100.00;99997.55;105968;1291;59844;-71
2023/01/04 08:46:26;;;;;;;151.30;108.90;;;;;;;0.14;100.00;99996.61;105959;1290;59948;-71
2023/01/04 08:48:51;;;;;;;158.10;115.00;;;;;;;0.24;100.00;99999.84;105969;1291;60009;-71
2023/01/04 08:51:18;;;;;;;154.70;114.20;;;;;;;0.35;100.00;99999.05;105986;1290;59881;-71
2023/01/04 08:53:44;;;;;;;150.60;110.50;;;;;;;0.44;100.00;99996.34;105981;1290;59782;-72
2023/01/04 08:56:10;;;;;;;151.90;108.20;;;;;;;0.52;100.00;99989.80;105969;1282;59831;-72
2023/01/04 08:58:37;;;;;;;150.00;104.90;;;;;;;0.61;100.00;99991.44;105950;1285;59831;-72
2023/01/04 09:01:06;;;;;;;144.00;101.70;;;;;;;0.70;100.00;99988.37;105682;1294;59755;-72
2023/01/04 09:03:32;;;;;;;148.50;108.10;;;;;;;0.79;100.00;99984.08;104490;1282;1003096;-71
2023/01/04 09:06:07;;;;;;;149.60;107.20;;;;;;;0.88;100.00;99979.59;105655;1291;59852;-72
2023/01/04 09:08:34;;;;;;;145.00;109.20;;;;;;;0.98;100.00;99975.11;105968;1290;61312;-71
2023/01/04 09:11:05;;;;;;;145.40;111.70;;;;;;;1.07;100.00;99974.30;105940;1282;64973;-71
2023/01/04 09:13:35;;;;;;;143.10;107.30;;;;;;;1.16;100.00;99968.41;105679;1295;59956;-71
2023/01/04 09:16:10;;;;;;;136.10;99.50;;;;;;;1.27;100.00;99967.21;105980;1284;59646;-71
2023/01/04 09:18:37;;;;;;;142.30;103.70;;;;;;;1.37;100.00;99964.27;105974;1291;66759;-72
2023/01/04 09:21:14;;;;;;;140.50;103.10;;;;;;;1.48;100.00;99957.45;105970;1291;61049;-72
2023/01/04 09:23:41;;;;;;;140.50;103.70;;;;;;;1.58;100.00;99953.45;105944;1291;63885;-72
2023/01/04 09:26:21;;;;;;;150.30;108.70;;;;;;;1.68;100.00;99955.41;105932;1291;59805;-72
2023/01/04 09:28:52;;;;;;;156.40;110.60;;;;;;;1.78;100.00;99955.61;105959;1292;59769;-71
2023/01/04 09:31:21;;;;;;;159.10;112.60;;;;;;;1.87;100.00;99959.67;105960;1284;66948;-72
2023/01/04 09:33:47;;;;;;;156.30;112.10;;;;;;;1.95;100.00;99955.34;105973;1291;60887;-72
2023/01/04 09:36:16;;;;;;;156.70;108.30;;;;;;;2.02;100.00;99956.61;105951;1290;59784;-72
2023/01/04 09:38:42;;;;;;;154.60;108.50;;;;;;;2.08;100.00;99952.98;105935;1292;59869;-71
2023/01/04 09:41:24;;;;;;;138.10;100.10;;;;;;;2.15;100.00;99950.26;105973;1284;59863;-72
2023/01/04 09:44:01;;;;;;;137.40;99.90;;;;;;;2.25;100.00;99938.70;105977;1285;66631;-72
2023/01/04 09:46:32;;;;;;;135.90;101.70;;;;;;;2.34;100.00;99931.34;105959;1292;60860;-71
2023/01/04 09:49:21;;;;;;;149.10;110.00;;;;;;;2.42;100.00;99918.74;105939;1292;65038;-72
2023/01/04 09:51:59;;;;;;;152.30;108.40;;;;;;;2.50;100.00;99912.28;105967;1284;59810;-72
2023/01/04 09:54:31;;;;;;;146.90;105.00;;;;;;;2.60;100.00;99909.80;105958;1296;60094;-71
2023/01/04 09:56:58;;;;;;;153.00;111.10;;;;;;;2.68;100.00;99908.41;105962;1284;67627;-72
2023/01/04 09:59:30;;;;;;;140.00;101.50;;;;;;;2.77;100.00;99898.22;105970;1292;60837;-71
2023/01/04 10:02:08;;;;;;;136.50;95.60;;;;;;;2.87;100.00;99883.98;105956;1290;64964;-71
2023/01/04 10:04:49;;;;;;;116.10;84.50;;;;;;;2.97;100.00;99868.66;105741;1299;59780;-73
2023/01/04 10:07:22;;;;;;;114.20;87.50;;;;;;;3.08;100.00;99861.57;105959;1290;59914;-71
2023/01/04 10:09:48;;;;;;;120.00;86.50;;;;;;;3.19;100.00;99846.75;105977;1288;66657;-71
2023/01/04 10:12:17;;;;;;;111.90;82.20;;;;;;;3.29;100.00;99840.02;105824;1290;59803;-72
2023/01/04 10:14:56;;;;;;;113.00;84.00;;;;;;;3.40;100.00;99835.21;105951;1290;64426;-71
2023/01/04 10:17:31;;;;;;;108.10;80.50;;;;;;;3.52;100.00;99829.46;105977;1284;59644;-72
2023/01/04 10:20:16;;;;;;;110.70;82.50;;;;;;;3.63;100.00;99822.48;105985;1291;59725;-71
2023/01/04 10:23:09;;;;;;;106.70;80.50;;;;;;;3.79;100.00;99818.95;105958;1288;67902;-71
2023/01/04 10:25:46;;;;;;;100.10;75.70;;;;;;;3.93;100.00;99814.35;105967;1290;59801;-72
2023/01/04 10:28:27;;;;;;;99.80;76.60;;;;;;;4.07;100.00;99806.77;105981;1291;63833;-73
2023/01/04 10:31:25;;;;;;;99.70;75.80;;;;;;;4.21;100.00;99802.16;105962;1291;60199;-71
2023/01/04 10:34:04;;;;;;;96.50;72.80;;;;;;;4.36;100.00;99802.26;105954;1284;59772;-72
2023/01/04 10:36:30;;;;;;;96.10;71.70;;;;;;;4.51;100.00;99799.71;105965;1284;67746;-72
2023/01/04 10:39:01;;;;;;;81.70;62.40;;;;;;;4.66;100.00;99796.61;105945;1291;60712;-72
2023/01/04 10:41:29;;;;;;;;;;;;;;;4.84;100.00;99792.91;105958;1291;65014;-71
2023/01/04 10:44:14;;;;;;;73.50;54.30;;;;;;;4.98;100.00;99790.52;105953;1292;59981;-71
2023/01/04 10:46:59;;;;;;;58.00;44.10;;;;;;;5.15;100.00;99785.23;105816;1292;60213;-71
2023/01/04 10:49:39;;;;;;;56.60;40.60;;;;;;;5.31;100.00;99777.50;105978;1284;67837;-73
2023/01/04 10:52:15;;;;;;;45.80;31.30;;;;;;;5.47;100.00;99775.22;105958;1291;60803;-73
2023/01/04 10:54:47;;;;;;;37.50;28.20;;;;;;;5.62;100.00;99769.78;105959;1291;64864;-71
2023/01/04 10:57:30;;;;;;;111.90;86.30;;;;;;;5.76;100.00;99759.77;105978;1287;59716;-72
2023/01/04 11:00:04;;;;;;;53.70;41.70;;;;;;;5.93;100.00;99748.44;105986;1290;59656;-72
2023/01/04 11:02:40;;;;;;;42.90;32.90;;;;;;;6.10;100.00;99736.54;105624;1293;68067;-73
2023/01/04 11:05:48;;;;;;;28.60;22.30;;;;;;;6.28;100.00;99731.28;105911;1282;60982;-72
2023/01/04 11:08:25;;;;;;;25.20;19.30;;;;;;;6.48;100.00;99724.00;105242;1300;65036;-71
2023/01/04 11:11:08;;;;;;;22.90;16.00;;;;;;;6.64;100.00;99713.13;105251;1300;60199;-72
2023/01/04 11:13:34;;;;;;;24.70;16.40;;;;;;;6.74;100.00;99705.66;105262;1292;59834;-72
2023/01/04 11:16:04;;;;;;;21.00;15.50;;;;;;;6.79;100.00;99697.69;105251;1299;66502;-71
2023/01/04 11:18:32;;;;;;;21.70;15.70;;;;;;;6.85;100.00;99692.54;105274;1300;60252;-72
2023/01/04 11:20:58;;;;;;;21.60;17.10;;;;;;;6.95;100.00;99688.73;104955;1295;63860;-71
2023/01/04 11:23:24;;;;;;;19.50;14.70;;;;;;;7.09;100.00;99686.06;104970;1307;59977;-72
2023/01/04 11:25:55;;;;;;;23.90;15.30;;;;;;;7.17;100.00;99685.01;105089;1287;59938;-71
2023/01/04 11:28:49;;;;;;;18.70;14.80;;;;;;;7.26;100.00;99686.20;105255;1295;67872;-72
2023/01/04 11:31:23;;;;;;;19.20;14.10;;;;;;;7.32;100.00;99680.69;105266;1299;59953;-73
2023/01/04 11:33:58;;;;;;;21.10;14.90;;;;;;;7.33;100.00;99668.42;105247;1298;63983;-72
2023/01/04 11:36:29;;;;;;;20.10;15.30;;;;;;;7.34;100.00;99661.15;105263;1297;59895;-72
2023/01/04 11:38:57;;;;;;;21.00;15.50;;;;;;;7.34;100.00;99655.65;105239;1298;59612;-71
2023/01/04 11:41:24;;;;;;;19.20;14.10;;;;;;;7.35;100.00;99649.63;105259;1291;66876;-71
2023/01/04 11:44:02;;;;;;;18.50;13.10;;;;;;;7.36;100.00;99642.83;105087;1295;69020;-72
2023/01/04 11:46:29;;;;;;;18.50;12.20;;;;;;;7.40;100.00;99643.20;105931;1290;64144;-71
2023/01/04 11:48:56;;;;;;;17.30;11.40;;;;;;;7.43;100.00;99635.29;105940;1298;59993;-71
2023/01/04 11:51:24;;;;;;;13.30;10.00;;;;;;;7.46;100.00;99632.33;105993;1284;59728;-70